Tiempo atmosférico en la estación meteorológica de Valdepeñas, Ciudad Real (700 m.)



Fecha
DESCASC
Temp. máxima en grados centígrados (hora)
DESCASC
Temp. mínima en grados centígrados (hora)
DESCASC
Temp. media en grados centígrados
DESCASC
Racha de viento máxima en m/sg (hora)
DESCASC
Velocidad máxima media en intervalos de 10 minutos(hora)
DESCASC
Precipitaciones diarias en mm
DESCASC
Precipitaciones de 00:00 a 06:00 en mm
DESCASC
Precipitaciones de 06:00 a 12:00 en mm
DESCASC
Precipitaciones de 12:00 a 18:00 en mm
DESCASC
Precipitaciones de 18:00 a 24:00 en mm
DESCASC
29-03-2020 18.7 (17:40) 0.4 (08:30) 9.6 5 (14:40) 2.22 (18:20) 0 0 0 0 0
28-03-2020 15.1 (16:20) 0.5 (05:50) 7.8 6.67 (18:10) 3.06 (18:30) 0 0 0 0 0
27-03-2020 9.1 (00:00) 2.1 (23:59) 5.6 6.67 (14:20) 3.89 (14:30) 2.2 0 0 2.2 0
26-03-2020 18.3 (16:40) 7.5 (00:00) 12.9 9.72 (15:40) 3.61 (14:40) 0 0 0 0 0
25-03-2020 15.8 (18:00) 3.2 (00:00) 9.5 8.89 (00:30) 4.72 (00:50) 0 0 0 0 0
24-03-2020 14.8 (13:30) 7.3 (00:00) 11.1 13.61 (12:00) 6.67 (14:30) 0 0 0 0 0
23-03-2020 16.5 (15:00) 4.9 (00:00) 10.7 9.72 (16:10) 4.72 (19:50) 2.2 0.6 0.8 0.8 0
22-03-2020 11.1 (16:00) 4.8 (08:00) 8 7.22 (17:30) 3.89 (18:00) 2.4 0.2 1 1 0.2
21-03-2020 12.8 (17:40) 7.4 (00:00) 10.1 10 (08:20) 5.83 (08:10) 1.4 0 0.4 0 1
20-03-2020 18.1 (14:30) 4.9 (00:00) 11.5 6.94 (15:50) 4.17 (07:00) 0 0 0 0 0
19-03-2020 19.2 (15:20) 4.3 (00:00) 11.8 6.94 (20:30) 4.17 (20:30) 0 0 0 0 0
18-03-2020 17.2 (14:10) 8.6 (00:00) 12.9 9.72 (01:00) 5.28 (05:20) 0 0 0 0 0
17-03-2020 18.3 (16:00) 0.7 (00:00) 9.5 16.67 (22:20) 8.06 (22:20) 0.8 0 0 0 0.8
16-03-2020 11.8 (01:10) 2.7 (00:00) 7.3 9.72 (05:00) 5.28 (16:10) 3.8 3.4 0.2 0.2 0
15-03-2020 21.4 (16:00) 7.9 (00:00) 14.6 8.89 (16:30) 5 (18:30) 0 0 0 0 0
14-03-2020 22.5 (16:20) 8.7 (00:00) 15.6 6.11 (16:20) 3.06 (16:20) 0 0 0 0 0
13-03-2020 25.1 (15:50) 9.7 (05:50) 17.4 6.67 (17:30) 3.89 (18:20) 0 0 0 0 0
12-03-2020 27.9 (15:20) 9.4 (00:00) 18.6 7.5 (14:50) 3.61 (15:20) 0 0 0 0 0
11-03-2020 28.6 (16:30) 5.9 (00:00) 17.3 4.17 (07:10) 2.78 (23:40) 0 0 0 0 0
10-03-2020 22.8 (16:20) 3.7 (00:00) 13.2 5.56 (00:20) 2.78 (14:50) 0 0 0 0 0
09-03-2020 18.3 (16:30) 3.7 (00:00) 11 6.11 (16:30) 3.06 (23:30) 0 0 0 0 0
08-03-2020 19.9 (16:00) -0.4 (00:00) 9.7 7.22 (16:50) 3.61 (15:20) 0 0 0 0 0
07-03-2020 15.1 (16:50) 1.7 (00:00) 8.4 8.33 (15:10) 3.89 (16:20) 0 0 0 0 0
06-03-2020 13.5 (16:20) 4.4 (00:00) 9 10.56 (14:00) 5.28 (14:00) 0 0 0 0 0
05-03-2020 15.3 (15:40) 8 (00:00) 11.7 13.06 (15:20) 6.39 (15:10) 0 0 0 0 0
04-03-2020 14.7 (15:10) 11.2 (00:00) 12.9 8.61 (14:20) 4.17 (11:40) 0 0 0 0 0
03-03-2020 13.8 (17:30) 3.8 (00:00) 8.8 13.61 (15:10) 6.11 (12:20) 0 0 0 0 0
02-03-2020 14.3 (13:30) 5.7 (00:00) 10 17.78 (09:40) 9.17 (05:40) 2.6 2.6 0 0 0
01-03-2020 14.1 (14:00) 9.6 (00:00) 11.9 10.83 (23:20) 5.83 (23:50) 0 0 0 0 0
29-02-2020 17.1 (14:40) 6.5 (00:00) 11.8 11.67 (14:40) 6.39 (13:40) 0 0 0 0 0

Gráficas

Temp. máximas Temp. mínimas Temp. medias Precipitaciones Rachas de viento máximas Velocidades máximas media en intervalos de 10 minutos

Datos horarios

Fecha y hora oficial Temperatura (ºC) Velocidad del viento (km/h) Dirección del viento Racha (km/h) Dirección de racha Precipitación (mm) Presión (hPa) Tendencia (hPa) Humedad (%)
2020-03-29 23:00:00 11.9 5 Sur 9 Sur 0 934.3 0.5 46
2020-03-29 22:00:00 13.2 2 Sur 8 Sudoeste 0 934.2 0.5 41
2020-03-29 21:00:00 14.9 3 Oeste 11 Noroeste 0 933.9 0.1 34
2020-03-29 20:00:00 16.4 6 Sudoeste 12 Sudoeste 0 933.8 -0.4 30
2020-03-29 19:00:00 17.8 8 Oeste 18 Oeste 0 933.7 -1.1 23
2020-03-29 18:00:00 18.4 6 Sudoeste 18 Sudoeste 0 933.8 -1.8 23
2020-03-29 17:00:00 18.4 5 Este 13 Oeste 0 934.2 -2 24
2020-03-29 16:00:00 18.1 5 Oeste 18 Nordeste 0 934.8 -2 25
2020-03-29 15:00:00 17.7 5 Sur 18 Sudoeste 0 935.6 -1.7 28
2020-03-29 14:00:00 15.9 6 Norte 16 Norte 0 936.2 -1.4 32
2020-03-29 13:00:00 14.9 6 Norte 13 Nordeste 0 936.8 -0.7 33
2020-03-29 12:00:00 14 4 Sudeste 9 Sudeste 0 937.3 -0.2 41
2020-03-29 11:00:00 10.7 3 Sur 9 Norte 0 937.6 0.6 58
2020-03-29 10:00:00 6.2 4 Norte 14 Nordeste 0 937.5 0.7 70
2020-03-29 09:00:00 2 3 Norte 6 Norte 0 937.5 0.7 82
2020-03-29 08:00:00 0.7 0 Calma 6 Norte 0 937 0.2 83
2020-03-29 07:00:00 1.1 2 Noroeste 4 Este 0 936.8 -0.3 84
2020-03-29 06:00:00 1.4 0 Calma 8 Norte 0 936.8 -0.7 80
2020-03-29 05:00:00 2.3 2 Norte 6 Este 0 936.8 -0.8 80
2020-03-29 03:00:00 3.3 0 Calma 9 Este 0 937.5 0.2 78
2020-03-29 01:00:00 4.6 5 Sudeste 13 Nordeste 0 937.6 0.5 74
2020-03-29 00:00:00 5.5 3 Este 16 Nordeste 0 937.5 0.7 70
2020-03-28 23:00:00 6.2 11 Nordeste 14 Nordeste 0 937.3 1.2 67
2020-03-28 22:00:00 7.5 8 Nordeste 14 Nordeste 0 937.1 1.6 62
2020-03-28 21:00:00 9.1 4 Nordeste 9 Nordeste 0 936.8 1.8 53
2020-03-28 20:00:00 11 5 Nordeste 21 Norte 0 936.1 1.5 45
2020-03-28 19:00:00 13.1 10 Norte 24 Noroeste 0 935.5 1 34
2020-03-28 18:00:00 14.2 10 Norte 18 Nordeste 0 935 0.3 29
2020-03-28 17:00:00 14.5 10 Nordeste 19 Nordeste 0 934.6 -0.6 29
2020-03-28 16:00:00 14.8 5 Noroeste 19 Nordeste 0 934.5 -1 30
2020-03-28 15:00:00 14.6 8 Norte 23 Norte 0 934.7 -1.1 35
2020-03-28 14:00:00 14.3 6 Norte 19 Norte 0 935.2 -0.7 39
2020-03-28 13:00:00 13.2 5 Norte 17 Nordeste 0 935.5 0 46
2020-03-28 12:00:00 11 5 Noroeste 15 Norte 0 935.8 0.8 58
2020-03-28 11:00:00 9 8 Noroeste 16 Noroeste 0 935.9 1.3 68
2020-03-28 10:00:00 6.4 7 Norte 13 Norte 0 935.5 1.6 74
2020-03-28 09:00:00 4.3 4 Norte 9 Norte 0 935 1.5 83
2020-03-28 08:00:00 1.2 3 Oeste 11 Nordeste 0 934.6 1.3 88
2020-03-28 07:00:00 1.2 4 Nordeste 15 Nordeste 0 933.9 0.7 89
2020-03-28 06:00:00 1.5 9 Nordeste 14 Nordeste 0 933.5 0.8 92
2020-03-28 05:00:00 1 4 Sur 8 Oeste 0 933.3 0.5 91
2020-03-28 04:00:00 1.3 0 Calma 9 Oeste 0 933.2 0.6 88
2020-03-28 03:00:00 2.7 6 Nordeste 21 Nordeste 0 932.7 0.3 87
2020-03-28 02:00:00 3.2 10 Nordeste 19 Nordeste 0 932.8 0.6 87
2020-03-28 01:00:00 2.2 6 Nordeste 21 Nordeste 0 932.6 0.6 88
2020-03-28 00:00:00 2.1 8 Nordeste 16 Nordeste 0 932.4 1.2 87
2020-03-27 23:00:00 2.6 9 Nordeste 15 Norte 0 932.2 1.7 86
2020-03-27 22:00:00 3 7 Norte 19 Norte 0 932 2.2 85
2020-03-27 21:00:00 3.8 10 Nordeste 19 Nordeste 0 931.2 1.9 82
2020-03-27 20:00:00 5.3 7 Norte 17 Norte 0 930.5 1.7 83
2020-03-27 19:00:00 5.5 6 Nordeste 13 Nordeste 0 929.8 0.9 83
2020-03-27 18:00:00 5.8 4 Nordeste 12 Nordeste 0 929.3 0.5 85
2020-03-27 17:00:00 5.7 6 Nordeste 15 Nordeste 0.4 928.8 0.2 86
2020-03-27 16:00:00 5.2 9 Nordeste 21 Nordeste 0.8 928.9 0.4 87
2020-03-27 15:00:00 5.2 10 Nordeste 24 Nordeste 0.4 928.8 0.5 87
2020-03-27 14:00:00 6.2 13 Nordeste 23 Nordeste 0.2 928.6 0.5 85
2020-03-27 13:00:00 7.8 7 Norte 18 Norte 0.4 928.5 0.9 80
2020-03-27 12:00:00 8.5 6 Noroeste 13 Oeste 0 928.3 1.2 67
2020-03-27 11:00:00 8.3 4 Oeste 14 Noroeste 0 928.1 1.4 63
2020-03-27 10:00:00 8.2 5 Noroeste 12 Noroeste 0 927.6 1.4 61
2020-03-27 09:00:00 6.9 5 Oeste 15 Sur 0 927.1 1 61
2020-03-27 08:00:00 5.4 6 Sur 12 Sudeste 0 926.7 0.7 65
2020-03-27 07:00:00 4.4 5 Este 15 Nordeste 0 926.2 0.1 74
2020-03-27 06:00:00 4 6 Nordeste 15 Nordeste 0 926.1 -0.6 75
2020-03-27 05:00:00 3.5 11 Nordeste 18 Nordeste 0 926 -1.3 75
2020-03-27 04:00:00 4.2 13 Nordeste 22 Nordeste 0 926.1 -1.3 69
2020-03-27 03:00:00 5 9 Nordeste 15 Nordeste 0 926.7 -1.2 58
2020-03-27 02:00:00 6 3 Nordeste 10 Este 0 927.3 -0.6 52
2020-03-27 01:00:00 7.4 3 Nordeste 8 Nordeste 0 927.4 -0.4 47
2020-03-27 00:00:00 9.1 4 Nordeste 8 Nordeste 0 927.9 0.3 41
2020-03-26 23:00:00 10.6 6 Nordeste 9 Norte 0 927.9 0.8 36
2020-03-26 22:00:00 12.6 6 Nordeste 13 Norte 0 927.8 1.4 29
2020-03-26 21:00:00 13.8 6 Norte 18 Norte 0 927.6 1.5 27
2020-03-26 20:00:00 14.7 10 Norte 21 Oeste 0 927.1 0.9 23
2020-03-26 19:00:00 15.9 9 Oeste 23 Oeste 0 926.4 0 38
2020-03-26 18:00:00 16.3 9 Oeste 23 Oeste 0 926.1 -0.6 37
2020-03-26 17:00:00 16.9 8 Oeste 31 Oeste 0 926.2 -1.2 33
2020-03-26 16:00:00 17.7 10 Oeste 35 Sudoeste 0 926.4 -1.7 30
2020-03-26 15:00:00 17.1 12 Oeste 27 Oeste 0 926.7 -1.9 30
2020-03-26 14:00:00 16.5 9 Oeste 25 Oeste 0 927.4 -1.8 34
2020-03-26 13:00:00 15.1 10 Oeste 21 Oeste 0 928.1 -1.3 37
2020-03-26 12:00:00 14.1 7 Noroeste 18 Noroeste 0 928.6 -0.9 44
2020-03-26 11:00:00 12.5 7 Oeste 19 Oeste 0 929.2 -0.1 53
2020-03-26 10:00:00 10.3 9 Sudoeste 19 Oeste 0 929.4 0.3 77
2020-03-26 09:00:00 9.3 9 Sudoeste 24 Sudoeste 0 929.5 0.5 83
2020-03-26 08:00:00 8.4 6 Sur 12 Sur 0 929.3 0.1 82
2020-03-26 07:00:00 7.9 2 Sudoeste 8 Noroeste 0 929.1 -0.5 79
2020-03-26 06:00:00 7.8 2 Sur 13 Sudeste 0 929 -1.3 76
2020-03-26 05:00:00 8.3 4 Sudeste 19 Sur 0 929.2 -1.7 74
2020-03-26 04:00:00 7.7 6 Sur 14 Sudeste 0 929.6 -1.7 74
2020-03-26 03:00:00 8.1 6 Sur 14 Sur 0 930.3 -1 72
2020-03-26 02:00:00 8.1 5 Sur 12 Sur 0 930.9 -0.7 72
2020-03-26 01:00:00 8.9 2 Oeste 14 Este 0 931.3 -0.6 69
2020-03-26 00:00:00 8.8 3 Sur 14 Sur 0 931.3 -0.7 68
2020-03-25 23:00:00 9.5 5 Sur 12 Sur 0 931.6 -0.3 66
2020-03-25 22:00:00 10.9 3 Sudoeste 14 Sudoeste 0 931.9 0.1 57
2020-03-25 21:00:00 10.7 4 Sudeste 8 Sur 0 932 0.3 52
2020-03-25 20:00:00 12.8 2 Sur 16 Noroeste 0 931.9 -0.4 43
2020-03-25 19:00:00 14.9 5 Oeste 19 Oeste 0 931.8 -0.9 33
2020-03-25 18:00:00 15.8 7 Oeste 18 Oeste 0 931.7 -1.5 31
2020-03-25 17:00:00 14.9 5 Noroeste 17 Oeste 0 932.3 -1.4 31
2020-03-25 16:00:00 14.6 5 Noroeste 23 Noroeste 0 932.7 -1.5 35
2020-03-25 15:00:00 15 8 Oeste 19 Norte 0 933.2 -1.3 36
2020-03-25 14:00:00 14.9 8 Noroeste 21 Noroeste 0 933.7 -1.1 34
2020-03-25 13:00:00 13.9 8 Norte 15 Noroeste 0 934.2 -0.6 40
2020-03-25 12:00:00 12.5 5 Oeste 11 Noroeste 0 934.5 0.1 47
2020-03-25 11:00:00 10.9 4 Oeste 13 Noroeste 0 934.8 0.6 51
2020-03-25 10:00:00 9.9 4 Nordeste 12 Nordeste 0 934.8 0.8 58
2020-03-25 09:00:00 6.4 4 Nordeste 13 Norte 0 934.4 0.5 73
2020-03-25 08:00:00 3.6 8 Nordeste 15 Nordeste 0 934.2 0.3 82
2020-03-25 07:00:00 3.3 8 Nordeste 14 Nordeste 0 934 0 82
2020-03-25 06:00:00 3.9 9 Nordeste 18 Nordeste 0 933.9 -0.4 81
2020-03-25 05:00:00 4.9 9 Nordeste 19 Nordeste 0 933.9 -0.6 78
2020-03-25 04:00:00 5.9 9 Nordeste 27 Nordeste 0 934 -0.6 71
2020-03-25 03:00:00 7 12 Nordeste 31 Nordeste 0 934.3 -0.3 68
2020-03-25 02:00:00 7 16 Nordeste 32 Nordeste 0 934.5 -0.3 66
2020-03-25 01:00:00 7.5 15 Nordeste 32 Este 0 934.6 0.4 63
2020-03-25 00:00:00 7.9 16 Nordeste 33 Nordeste 0 934.6 0.8 63
2020-03-24 23:00:00 8.5 11 Nordeste 31 Nordeste 0 934.8 1.6 69
2020-03-24 22:00:00 8.8 13 Nordeste 29 Nordeste 0 934.2 1.3 70
2020-03-24 21:00:00 9.1 12 Nordeste 32 Norte 0 933.8 1.5 71
2020-03-24 20:00:00 9.4 14 Norte 37 Nordeste 0 933.2 1.7 72
2020-03-24 19:00:00 10.2 15 Nordeste 40 Nordeste 0 932.9 1.5 68
2020-03-24 18:00:00 11.2 20 Nordeste 44 Nordeste 0 932.3 1 62
2020-03-24 17:00:00 12.3 21 Nordeste 47 Nordeste 0 931.5 0.2 59
2020-03-24 16:00:00 13.1 19 Nordeste 46 Nordeste 0 931.4 -0.2 56
2020-03-24 15:00:00 14.2 20 Nordeste 46 Nordeste 0 931.3 -0.3 50
2020-03-24 14:00:00 13.7 22 Nordeste 42 Nordeste 0 931.3 -0.3 52
2020-03-24 13:00:00 13.6 21 Nordeste 49 Nordeste 0 931.6 0.2 55
2020-03-24 12:00:00 12.8 21 Nordeste 49 Nordeste 0 931.6 0.3 58
2020-03-24 11:00:00 11.6 19 Nordeste 44 Nordeste 0 931.6 0.6 64
2020-03-24 10:00:00 10.8 23 Nordeste 47 Nordeste 0 931.4 0.3 65
2020-03-24 09:00:00 10.2 21 Nordeste 39 Nordeste 0 931.3 0.4 67
2020-03-24 08:00:00 8.1 13 Nordeste 30 Nordeste 0 931 0.1 72
2020-03-24 07:00:00 7.5 13 Nordeste 28 Nordeste 0 931.1 -0.1 72
2020-03-24 06:00:00 7.9 9 Norte 22 Nordeste 0 930.9 -0.5 74
2020-03-24 05:00:00 8.1 9 Norte 21 Nordeste 0 930.9 -0.7 79
2020-03-24 04:00:00 7.8 5 Norte 17 Norte 0 931.2 -0.8 82
2020-03-24 03:00:00 7.5 6 Norte 13 Nordeste 0 931.4 -0.9 81
2020-03-24 02:00:00 7.7 7 Nordeste 15 Nordeste 0 931.6 -0.9 81
2020-03-24 01:00:00 8.5 8 Norte 15 Nordeste 0 932 -0.5 75
2020-03-24 00:00:00 9.2 6 Nordeste 14 Nordeste 0 932.3 0.1 79
2020-03-23 23:00:00 9.3 6 Nordeste 22 Nordeste 0 932.5 1 74
2020-03-23 22:00:00 9.9 8 Nordeste 21 Nordeste 0 932.5 1.1 76
2020-03-23 21:00:00 10.3 10 Nordeste 25 Nordeste 0 932.2 1.4 77
2020-03-23 20:00:00 11 14 Nordeste 32 Nordeste 0 931.5 0.8 71
2020-03-23 19:00:00 12 9 Nordeste 25 Nordeste 0 931.4 1 60
2020-03-23 18:00:00 12.6 11 Nordeste 26 Nordeste 0 930.8 0.3 58
2020-03-23 17:00:00 11.8 10 Nordeste 35 Nordeste 0.4 930.7 -0.6 66
2020-03-23 16:00:00 13.9 9 Norte 30 Nordeste 0.4 930.4 -1.6 55
2020-03-23 15:00:00 16 8 Nordeste 19 Nordeste 0 930.5 -1.8 40
2020-03-23 14:00:00 14.7 8 Este 25 Este 0 931.3 -1.1 41
2020-03-23 13:00:00 13.4 6 Nordeste 18 Nordeste 0 932 -0.7 49
2020-03-23 12:00:00 12 8 Nordeste 19 Este 0 932.3 0.1 58
2020-03-23 11:00:00 10.7 5 Nordeste 15 Norte 0 932.4 0.5 70
2020-03-23 10:00:00 9.6 6 Norte 15 Norte 0 932.7 1 79
2020-03-23 09:00:00 7.3 3 Norte 8 Nordeste 0 932.2 0.8 93
2020-03-23 08:00:00 6.5 4 Norte 7 Nordeste 0 931.9 0.8 93
2020-03-23 07:00:00 6.1 2 Norte 9 Este 0.8 931.7 0.7 92
2020-03-23 06:00:00 5.9 2 Oeste 7 Nordeste 0.6 931.4 0.3 92
2020-03-23 05:00:00 5.6 2 Sudoeste 14 Nordeste 0 931.1 -0.3 91
2020-03-23 04:00:00 5.3 8 Norte 13 Nordeste 0 931 -0.5 91
2020-03-23 03:00:00 5.4 0 Calma 13 Nordeste 0 931.1 -0.7 91
2020-03-23 02:00:00 5.4 10 Nordeste 14 Nordeste 0 931.4 -0.1 90
2020-03-23 01:00:00 5.5 3 Norte 8 Norte 0 931.5 0.2 89
2020-03-23 00:00:00 5.3 4 Sur 12 Norte 0 931.8 1 88
2020-03-22 23:00:00 5.3 3 Norte 8 Este 0 931.5 1.4 88
2020-03-22 22:00:00 6 4 Este 8 Este 0 931.3 1.7 86
2020-03-22 21:00:00 6.4 4 Este 7 Sudeste 0 930.8 1.8 85
2020-03-22 20:00:00 7.5 2 Sudeste 10 Oeste 0 930.1 1.4 83
2020-03-22 19:00:00 7.8 6 Oeste 21 Sur 0.2 929.6 1.2 83
2020-03-22 18:00:00 8.4 14 Sur 26 Sudeste 0 929 0.3 82
2020-03-22 17:00:00 10.2 6 Norte 19 Noroeste 0 928.7 -0.4 69
2020-03-22 16:00:00 11 11 Norte 21 Norte 0 928.4 -1.4 65
2020-03-22 15:00:00 10.6 10 Noroeste 25 Norte 0 928.7 -1.5 71
2020-03-22 14:00:00 9.9 12 Noroeste 24 Noroeste 0 929.1 -1.2 78
2020-03-22 13:00:00 7.7 7 Noroeste 17 Norte 1 929.8 -0.3 87
2020-03-22 12:00:00 7.8 7 Noroeste 14 Noroeste 0.4 930.2 0.7 89
2020-03-22 11:00:00 6.7 5 Noroeste 9 Oeste 0.6 930.3 1 90
2020-03-22 10:00:00 6.6 3 Norte 8 Nordeste 0 930.1 1 88
2020-03-22 09:00:00 5.6 5 Nordeste 8 Nordeste 0 929.5 0.6 90
2020-03-22 08:00:00 4.8 3 Sudeste 11 Nordeste 0 929.3 0.7 91
2020-03-22 07:00:00 5 5 Norte 10 Nordeste 0 929.1 0.2 90
2020-03-22 06:00:00 5.5 0 Calma 8 Nordeste 0 928.9 -0.3 89
2020-03-22 05:00:00 5.8 3 Norte 7 Norte 0 928.6 -1.2 89
2020-03-22 04:00:00 5.8 3 Nordeste 6 Este 0 928.9 -1 87
2020-03-22 03:00:00 6.6 0 Calma 7 Sur 0.2 929.2 -1.2 85
2020-03-22 02:00:00 7 4 Sur 8 Sudeste 0 929.8 -0.8 85
2020-03-22 01:00:00 6.9 2 Este 11 Este 0 929.9 -0.7 86
2020-03-22 00:00:00 7.6 6 Este 13 Este 0.8 930.4 0.5 87
2020-03-21 23:00:00 7.6 3 Sur 13 Sudoeste 0.2 930.6 1.2 84
2020-03-21 22:00:00 8 11 Sur 24 Sur 0 930.6 1.5 79
2020-03-21 21:00:00 8.9 9 Nordeste 20 Nordeste 0 929.9 0.9 65
2020-03-21 20:00:00 10.1 5 Nordeste 11 Nordeste 0 929.4 0.1 51
2020-03-21 19:00:00 11.6 5 Nordeste 13 Nordeste 0 929.1 -0.6 46
2020-03-21 18:00:00 12.4 6 Sudeste 14 Sudeste 0 929 -1.5 41
2020-03-21 17:00:00 12.7 3 Este 12 Sudeste 0 929.3 -1.8 45
2020-03-21 16:00:00 11.7 4 Sudeste 15 Sudeste 0 929.7 -2 50
2020-03-21 15:00:00 10.5 6 Sur 19 Sur 0 930.5 -1.4 56
2020-03-21 14:00:00 9.9 10 Sur 23 Sur 0 931.1 -0.9 56
2020-03-21 13:00:00 9.9 14 Sur 24 Sur 0 931.7 -0.3 63
2020-03-21 12:00:00 9.2 6 Sur 15 Sur 0 931.9 0 70
2020-03-21 11:00:00 8.3 6 Sur 14 Sudeste 0.4 932 0.7 78
2020-03-21 10:00:00 7.5 7 Sur 24 Sudoeste 0 932 1.6 78
2020-03-21 09:00:00 7.8 14 Sur 36 Sur 0 931.9 1.8 69
2020-03-21 08:00:00 8.8 16 Sur 31 Sur 0 931.3 1.2 75
2020-03-21 07:00:00 9.4 6 Sudeste 16 Sudeste 0 930.4 0 71
2020-03-21 06:00:00 8.7 5 Nordeste 13 Nordeste 0 930.1 -0.8 74
2020-03-21 05:00:00 8.9 3 Nordeste 8 Norte 0 930.1 -1.4 73
2020-03-21 04:00:00 9.3 2 Este 9 Este 0 930.4 -1.4 70
2020-03-21 03:00:00 9.1 2 Nordeste 10 Nordeste 0 930.9 -1.4 70
2020-03-21 02:00:00 9.5 4 Este 19 Nordeste 0 931.5 -0.7 69
2020-03-21 01:00:00 9.7 6 Nordeste 16 Este 0 931.8 -0.4 69
2020-03-21 00:00:00 9.9 9 Nordeste 23 Nordeste 0 932.3 0.6 68
2020-03-20 23:00:00 10 13 Nordeste 24 Nordeste 0 932.2 0.8 69
2020-03-20 22:00:00 10.8 10 Nordeste 22 Nordeste 0 932.2 0.7 65
2020-03-20 21:00:00 12.6 7 Nordeste 20 Nordeste 0 931.7 0.2 53
2020-03-20 20:00:00 13.9 4 Este 10 Sur 0 931.4 -0.4 47
2020-03-20 19:00:00 15.8 5 Sudeste 15 Sudeste 0 931.5 -0.5 43
2020-03-20 18:00:00 16.9 9 Sudeste 22 Sur 0 931.5 -0.9 39
2020-03-20 17:00:00 17.3 8 Sudeste 24 Sudeste 0 931.8 -1.2 36
2020-03-20 16:00:00 17.6 10 Sudeste 25 Sur 0 932 -1.6 39
2020-03-20 15:00:00 17 5 Este 20 Sudeste 0 932.4 -1.6 38
2020-03-20 14:00:00 17.9 6 Sudeste 18 Sur 0 933 -1.3 35
2020-03-20 13:00:00 17 6 Sudeste 18 Nordeste 0 933.6 -0.9 38
2020-03-20 12:00:00 15.1 7 Norte 17 Este 0 934 -0.3 45
2020-03-20 11:00:00 13.4 7 Nordeste 16 Nordeste 0 934.3 0.2 53
2020-03-20 10:00:00 8.7 8 Nordeste 19 Nordeste 0 934.5 0.5 73
2020-03-20 09:00:00 5.7 13 Nordeste 21 Nordeste 0 934.3 0.5 81
2020-03-20 08:00:00 5.2 13 Nordeste 22 Nordeste 0 934.1 0.6 83
2020-03-20 07:00:00 5 15 Nordeste 22 Nordeste 0 934 0.2 83
2020-03-20 06:00:00 5.6 8 Nordeste 16 Nordeste 0 933.8 -0.4 79
2020-03-20 05:00:00 6.6 5 Nordeste 13 Nordeste 0 933.5 -0.8 76
2020-03-20 04:00:00 6.8 4 Este 13 Nordeste 0 933.8 -0.8 75
2020-03-20 03:00:00 7.2 6 Nordeste 19 Nordeste 0 934.2 -0.7 75
2020-03-20 02:00:00 7.6 12 Nordeste 21 Nordeste 0 934.3 -0.7 73
2020-03-20 01:00:00 8.4 6 Nordeste 14 Nordeste 0 934.6 -0.3 69
2020-03-20 00:00:00 8.7 10 Nordeste 19 Nordeste 0 934.9 0.1 69
2020-03-19 23:00:00 9.4 10 Nordeste 21 Nordeste 0 935 0.5 68
2020-03-19 22:00:00 10.6 9 Nordeste 23 Nordeste 0 934.9 0.8 63
2020-03-19 21:00:00 12 8 Nordeste 25 Nordeste 0 934.8 0.9 61
2020-03-19 20:00:00 13.7 12 Nordeste 21 Nordeste 0 934.5 0.2 56
2020-03-19 19:00:00 15.7 9 Este 20 Este 0 934.1 -0.5 50
2020-03-19 18:00:00 17 7 Este 17 Nordeste 0 933.9 -1.2 46
2020-03-19 17:00:00 17.8 9 Este 23 Este 0 934.3 -1.7 40
2020-03-19 16:00:00 18.4 6 Este 19 Este 0 934.6 -2.5 37
2020-03-19 15:00:00 18.7 8 Nordeste 21 Este 0 935.1 -2.7 35
2020-03-19 14:00:00 18.2 6 Este 16 Nordeste 0 936 -2.5 36
2020-03-19 13:00:00 16.9 7 Nordeste 15 Este 0 937.1 -1.6 40
2020-03-19 12:00:00 15.6 5 Nordeste 15 Este 0 937.8 -0.8 44
2020-03-19 11:00:00 13.3 5 Nordeste 15 Nordeste 0 938.5 0 53
2020-03-19 10:00:00 10.5 8 Norte 14 Norte 0 938.7 0.1 66
2020-03-19 09:00:00 6.8 5 Nordeste 9 Nordeste 0 938.6 0.1 82
2020-03-19 08:00:00 4.7 4 Nordeste 7 Norte 0 938.5 0.1 86
2020-03-19 07:00:00 4.4 3 Sudeste 4 Sudeste 0 938.6 0.1 84
2020-03-19 06:00:00 5.3 2 Sudoeste 15 Nordeste 0 938.5 -0.2 83
2020-03-19 05:00:00 5.7 9 Nordeste 14 Nordeste 0 938.4 -0.7 82
2020-03-19 04:00:00 6 6 Nordeste 12 Nordeste 0 938.5 -0.8 79
2020-03-19 03:00:00 6.8 7 Norte 21 Nordeste 0 938.7 -1.2 75
2020-03-19 02:00:00 7.3 10 Nordeste 24 Nordeste 0 939.1 -1.1 70
2020-03-19 01:00:00 7.8 11 Nordeste 18 Norte 0 939.3 -1.1 68
2020-03-19 00:00:00 9 7 Nordeste 19 Norte 0 939.9 -0.3 65
2020-03-18 23:00:00 9.7 6 Norte 13 Norte 0 940.2 0.3 68
2020-03-18 22:00:00 10.7 6 Nordeste 12 Norte 0 940.4 1 66
2020-03-18 21:00:00 11.7 4 Noroeste 20 Nordeste 0 940.2 0.7 62
2020-03-18 20:00:00 12.9 8 Nordeste 22 Norte 0 939.9 0.3 57
2020-03-18 19:00:00 14.3 12 Nordeste 32 Nordeste 0 939.4 -0.3 51
2020-03-18 18:00:00 15.4 11 Nordeste 26 Nordeste 0 939.5 -0.3 49
2020-03-18 17:00:00 15.2 13 Nordeste 29 Nordeste 0 939.6 -0.9 49
2020-03-18 16:00:00 15.8 14 Nordeste 33 Nordeste 0 939.7 -1.5 45
2020-03-18 15:00:00 17 14 Nordeste 31 Nordeste 0 939.8 -2 41
2020-03-18 14:00:00 17.1 13 Nordeste 27 Nordeste 0 940.5 -1.6 42
2020-03-18 13:00:00 15.8 14 Nordeste 31 Nordeste 0 941.2 -0.9 43
2020-03-18 12:00:00 15.3 12 Nordeste 27 Este 0 941.8 -0.1 48
2020-03-18 11:00:00 14.6 11 Nordeste 28 Nordeste 0 942.1 0.4 51
2020-03-18 10:00:00 12.3 12 Nordeste 22 Norte 0 942.1 0.5 61
2020-03-18 09:00:00 9.7 7 Norte 23 Nordeste 0 941.9 0.6 70
2020-03-18 08:00:00 8.9 13 Nordeste 22 Nordeste 0 941.7 0.8 73
2020-03-18 07:00:00 8.8 8 Norte 30 Nordeste 0 941.6 0.5 73
2020-03-18 06:00:00 9.1 9 Nordeste 31 Norte 0 941.3 -0.1 72
2020-03-18 05:00:00 9.7 15 Nordeste 31 Nordeste 0 940.9 -0.4 71
2020-03-18 04:00:00 9.8 13 Norte 22 Norte 0 941.1 -0.2 72
2020-03-18 03:00:00 9.9 7 Norte 19 Norte 0 941.4 -0.3 73
2020-03-18 02:00:00 10.2 9 Norte 30 Nordeste 0 941.3 -0.6 73
2020-03-18 01:00:00 10.7 15 Nordeste 35 Nordeste 0 941.3 -0.4 74
2020-03-18 00:00:00 11.5 15 Nordeste 35 Nordeste 0 941.7 0.4 74
2020-03-17 23:00:00 11.7 20 Nordeste 60 Nordeste 0.8 941.9 1.3 81
2020-03-17 22:00:00 12.7 15 Nordeste 37 Norte 0 941.7 1.4 71
2020-03-17 21:00:00 12.9 16 Nordeste 37 Nordeste 0 941.3 1.6 72
2020-03-17 20:00:00 13.1 18 Nordeste 36 Nordeste 0 940.6 1.6 71
2020-03-17 19:00:00 13.9 14 Nordeste 40 Nordeste 0 940.3 1.5 63
2020-03-17 18:00:00 15.2 17 Nordeste 36 Nordeste 0 939.7 0.9 57
2020-03-17 17:00:00 17 10 Este 32 Nordeste 0 939 -0.3 39
2020-03-17 16:00:00 18 13 Nordeste 32 Nordeste 0 938.8 -0.9 33
2020-03-17 15:00:00 16.9 12 Nordeste 31 Nordeste 0 938.8 -1 32
2020-03-17 14:00:00 16.2 12 Nordeste 36 Nordeste 0 939.3 -0.4 31
2020-03-17 13:00:00 15 14 Nordeste 32 Nordeste 0 939.7 0.3 36
2020-03-17 12:00:00 13.2 13 Nordeste 32 Este 0 939.8 1.1 39
2020-03-17 11:00:00 11.8 13 Nordeste 32 Nordeste 0 939.7 1.5 43
2020-03-17 10:00:00 8.9 12 Norte 21 Nordeste 0 939.4 1.9 62
2020-03-17 09:00:00 5 4 Norte 14 Nordeste 0 938.7 2.1 76
2020-03-17 08:00:00 1.5 4 Nordeste 12 Nordeste 0 938.2 2.1 85
2020-03-17 07:00:00 0.8 3 Noroeste 17 Nordeste 0 937.5 1.7 83
2020-03-17 06:00:00 1.6 5 Nordeste 13 Nordeste 0 936.6 0.8 80
2020-03-17 05:00:00 2.4 5 Norte 9 Nordeste 0 936.1 0.3 78
2020-03-17 04:00:00 2.2 4 Este 21 Nordeste 0 935.8 0.1 80
2020-03-17 03:00:00 2.9 9 Nordeste 18 Nordeste 0 935.8 0.3 79
2020-03-17 02:00:00 1.8 10 Nordeste 16 Nordeste 0 935.8 0.5 84
2020-03-17 01:00:00 1.9 7 Nordeste 18 Norte 0 935.7 1.3 82
2020-03-17 00:00:00 3.2 8 Nordeste 13 Nordeste 0 935.5 1.8 78
2020-03-16 23:00:00 4.2 6 Este 20 Este 0 935.3 2.4 72
2020-03-16 22:00:00 4.6 7 Nordeste 17 Nordeste 0 934.4 2.2 70
2020-03-16 21:00:00 4.7 8 Sudeste 16 Sudeste 0 933.7 2.1 69
2020-03-16 20:00:00 5.5 9 Este 15 Este 0 932.9 1.4 67
2020-03-16 19:00:00 6.5 5 Sudeste 20 Sur 0 932.2 0.9 61
2020-03-16 18:00:00 6.9 10 Sur 27 Sudeste 0 931.6 0.3 59
2020-03-16 17:00:00 7.8 12 Sur 35 Sur 0 931.5 0.2 58
2020-03-16 16:00:00 8.1 16 Sur 30 Sudeste 0 931.3 0.1 58
2020-03-16 15:00:00 6.4 9 Sudeste 26 Sur 0 931.3 -0.3 65
2020-03-16 14:00:00 7.6 14 Sur 28 Sur 0.2 931.3 -0.5 54
2020-03-16 13:00:00 8.1 12 Sudoeste 25 Sur 0 931.2 -0.8 55
2020-03-16 12:00:00 6.1 11 Sudoeste 29 Sur 0 931.6 -0.2 62
2020-03-16 11:00:00 5.4 13 Sur 27 Sur 0 931.8 0.7 62
2020-03-16 10:00:00 4 12 Sur 31 Sur 0 932 1.5 69
2020-03-16 09:00:00 3.3 15 Sur 30 Sur 0 931.8 1.7 75
2020-03-16 08:00:00 3.1 10 Sudoeste 24 Sur 0 931.1 1.2 83
2020-03-16 07:00:00 2.9 12 Sudeste 18 Sudeste 0.2 930.5 1.2 87
2020-03-16 06:00:00 2.8 10 Sudoeste 33 Sudoeste 0.8 930.1 0 82
2020-03-16 05:00:00 5.8 15 Sudoeste 35 Sudoeste 0 929.9 0 74
2020-03-16 04:00:00 8.1 13 Sudoeste 26 Sudoeste 0.4 929.3 -0.9 82
2020-03-16 03:00:00 9.8 11 Sur 23 Oeste 1.6 930.1 -1.2 82
2020-03-16 02:00:00 11 3 Oeste 14 Oeste 0.6 929.9 -2.2 81
2020-03-16 01:00:00 11.5 5 Este 12 Este 0 930.2 -2.7 70
2020-03-16 00:00:00 11.5 3 Este 10 Este 0 931.3 -1 74
2020-03-15 23:00:00 11.7 4 Sudoeste 25 Noroeste 0 932.1 0.6 72
2020-03-15 22:00:00 13.1 9 Oeste 24 Oeste 0 932.9 2 55
2020-03-15 21:00:00 15.2 6 Sudoeste 13 Sudoeste 0 932.3 1.4 57
2020-03-15 20:00:00 15.6 6 Sur 30 Sur 0 931.5 0 46
2020-03-15 19:00:00 17.6 15 Sur 31 Sur 0 930.9 -0.8 39
2020-03-15 18:00:00 19.9 15 Sur 30 Sudoeste 0 930.9 -1.3 36
2020-03-15 17:00:00 21 13 Sur 32 Sur 0 931.5 -1.6 32
2020-03-15 16:00:00 21.4 11 Sur 29 Sur 0 931.7 -2.4 33
2020-03-15 15:00:00 20.8 12 Sur 27 Sur 0 932.2 -2.6 41
2020-03-15 14:00:00 20.2 10 Sur 23 Sudoeste 0 933.1 -2.1 44
2020-03-15 13:00:00 19.6 9 Sur 22 Sur 0 934.1 -1.4 48
2020-03-15 12:00:00 18.5 10 Sur 20 Sur 0 934.8 -0.6 53
2020-03-15 11:00:00 17.1 8 Sur 19 Sudeste 0 935.2 0.1 57
2020-03-15 10:00:00 15 10 Sudeste 19 Sudeste 0 935.5 0.6 65
2020-03-15 09:00:00 13 6 Sudeste 21 Sudeste 0 935.4 0.6 72
2020-03-15 08:00:00 10.5 4 Sudeste 14 Sudeste 0 935.1 0.2 83
2020-03-15 07:00:00 8 0 Calma 9 Nordeste 0 934.9 -0.2 80
2020-03-15 06:00:00 8.2 5 Norte 10 Nordeste 0 934.8 -0.9 79
2020-03-15 05:00:00 8.6 3 Nordeste 13 Nordeste 0 934.9 -1.2 76
2020-03-15 04:00:00 9.1 6 Norte 12 Nordeste 0 935.1 -1.3 72
2020-03-15 03:00:00 9.7 4 Norte 6 Norte 0 935.7 -0.9 69
2020-03-15 02:00:00 10.7 3 Norte 7 Norte 0 936.1 -0.6 67
2020-03-15 01:00:00 11.8 3 Norte 7 Norte 0 936.4 -0.2 64
2020-03-15 00:00:00 13.3 3 Sudeste 9 Sudeste 0 936.6 0.2 59
2020-03-14 23:00:00 14 5 Sudeste 9 Sudeste 0 936.7 0.6 56
2020-03-14 22:00:00 15 5 Sudeste 9 Sudeste 0 936.6 0.8 52
2020-03-14 21:00:00 16.2 3 Sudeste 11 Oeste 0 936.4 0.7 48
2020-03-14 20:00:00 17.9 4 Sudeste 10 Sur 0 936.1 0.4 44
2020-03-14 19:00:00 20.3 7 Sur 15 Sur 0 935.8 -0.2 37
2020-03-14 18:00:00 20.8 4 Sur 15 Sur 0 935.7 -0.8 34
2020-03-14 17:00:00 22.1 9 Sudoeste 22 Sur 0 935.7 -1.6 32
2020-03-14 16:00:00 21.5 6 Sur 19 Sur 0 936 -2 34
2020-03-14 15:00:00 21.7 5 Sudeste 17 Sudeste 0 936.5 -2 35
2020-03-14 14:00:00 19.6 3 Este 11 Sudoeste 0 937.3 -1.7 44
2020-03-14 13:00:00 19.2 3 Noroeste 12 Noroeste 0 938 -1.1 49
2020-03-14 12:00:00 18.2 3 Nordeste 12 Oeste 0 938.5 0 55
2020-03-14 11:00:00 16.3 4 Oeste 10 Noroeste 0 939 1.4 64
2020-03-14 10:00:00 14.4 2 Nordeste 9 Norte 0 939.1 1.7 69
2020-03-14 09:00:00 10.9 3 Norte 8 Norte 0 938.5 1.5 75
2020-03-14 08:00:00 8.9 2 Norte 11 Norte 0 937.6 0.7 78
2020-03-14 07:00:00 9 8 Nordeste 14 Nordeste 0 937.4 0.6 80
2020-03-14 06:00:00 10 5 Norte 12 Nordeste 0 937 -0.2 71
2020-03-14 05:00:00 11.7 2 Norte 6 Sudeste 0 936.9 -0.4 70
2020-03-14 04:00:00 12.5 2 Sudeste 4 Sudeste 0 936.8 -0.5 66
2020-03-14 03:00:00 12.4 0 Calma 8 Sudeste 0 937.2 0 61
2020-03-14 02:00:00 13.4 5 Sudeste 8 Sudeste 0 937.3 0.3 57
2020-03-14 01:00:00 14 4 Sur 6 Sur 0 937.3 0.8 51
2020-03-14 00:00:00 14 4 Sudeste 9 Este 0 937.2 1.2 50
2020-03-13 23:00:00 14.4 4 Sudeste 7 Sudeste 0 937 1.5 43
2020-03-13 22:00:00 15.8 4 Sudeste 6 Sudeste 0 936.5 1.6 45
2020-03-13 21:00:00 17 3 Sudeste 4 Sudeste 0 936 1.8 41
2020-03-13 20:00:00 18.9 3 Oeste 14 Oeste 0 935.5 1.4 38
2020-03-13 19:00:00 21.5 6 Oeste 23 Sur 0 934.9 0.6 32
2020-03-13 18:00:00 23.8 11 Sudoeste 24 Sur 0 934.2 -0.3 17
2020-03-13 17:00:00 24.4 10 Sudoeste 20 Sudoeste 0 934.1 -1.3 15
2020-03-13 16:00:00 24.5 6 Noroeste 22 Sudoeste 0 934.3 -1.8 17
2020-03-13 15:00:00 24.5 3 Sudoeste 16 Sur 0 934.5 -2.2 18
2020-03-13 14:00:00 23.6 5 Sudoeste 17 Sudoeste 0 935.4 -1.5 20
2020-03-13 13:00:00 22.8 7 Sur 24 Este 0 936.1 -1 23
2020-03-13 12:00:00 21 4 Sudeste 10 Sur 0 936.7 -0.2 31
2020-03-13 11:00:00 18.9 4 Sudeste 11 Sur 0 936.9 0.5 42
2020-03-13 10:00:00 16.3 5 Sur 9 Sur 0 937.1 0.8 53
2020-03-13 09:00:00 11.4 5 Norte 9 Nordeste 0 936.9 0.8 68
2020-03-13 08:00:00 10.4 4 Norte 9 Norte 0 936.4 0.3 68
2020-03-13 07:00:00 10.2 5 Norte 13 Nordeste 0 936.3 0 68
2020-03-13 06:00:00 10 8 Norte 10 Nordeste 0 936.1 -0.6 65
2020-03-13 05:00:00 10.6 3 Nordeste 8 Norte 0 936.1 -0.7 59
2020-03-13 04:00:00 11.8 5 Norte 9 Nordeste 0 936.3 -0.8 56
2020-03-13 03:00:00 13.3 3 Sudeste 10 Sudeste 0 936.7 -0.5 52
2020-03-13 02:00:00 13.3 3 Nordeste 8 Norte 0 936.8 -0.3 51
2020-03-13 01:00:00 14.5 4 Norte 6 Norte 0 937.1 0.1 46
2020-03-13 00:00:00 15.9 3 Sudeste 6 Sudeste 0 937.2 0.5 43
2020-03-12 23:00:00 16.9 3 Sudeste 8 Sudeste 0 937.1 0.8 40
2020-03-12 22:00:00 17.7 3 Este 7 Sudeste 0 937 1.1 39
2020-03-12 21:00:00 19.5 2 Sur 12 Sur 0 936.7 1 33
2020-03-12 20:00:00 20.8 3 Sur 15 Sur 0 936.3 0.5 30
2020-03-12 19:00:00 24.2 9 Sur 21 Sur 0 935.9 -0.2 23
2020-03-12 18:00:00 26.8 9 Sur 22 Sur 0 935.7 -1 20
2020-03-12 17:00:00 27 10 Sur 23 Sur 0 935.8 -1.8 18
2020-03-12 16:00:00 27.6 8 Sur 22 Sur 0 936.1 -2.5 17
2020-03-12 15:00:00 27.4 9 Sudoeste 27 Sudoeste 0 936.7 -2.4 18
2020-03-12 14:00:00 27.2 9 Sur 21 Sur 0 937.6 -1.9 20
2020-03-12 13:00:00 27.3 9 Sudoeste 23 Sur 0 938.6 -0.8 17
2020-03-12 12:00:00 25.9 9 Sur 19 Sur 0 939.1 -0.1 22
2020-03-12 11:00:00 22.9 2 Noroeste 10 Nordeste 0 939.5 0.5 31
2020-03-12 10:00:00 18.6 6 Nordeste 17 Nordeste 0 939.4 0.5 43
2020-03-12 09:00:00 13.4 4 Nordeste 13 Nordeste 0 939.2 0.2 52
2020-03-12 08:00:00 9.7 0 Calma 11 Nordeste 0 939 -0.3 61
2020-03-12 07:00:00 9.6 6 Norte 12 Norte 0 938.9 -0.8 63
2020-03-12 06:00:00 10.2 6 Norte 15 Nordeste 0 939 -1.4 60
2020-03-12 05:00:00 10.2 5 Nordeste 9 Norte 0 939.3 -1.7 60
2020-03-12 04:00:00 11.1 2 Sudoeste 17 Nordeste 0 939.7 -1.6 54
2020-03-12 03:00:00 11.9 5 Norte 8 Sur 0 940.4 -1 52
2020-03-12 02:00:00 13.2 2 Sur 14 Nordeste 0 941 -0.4 47
2020-03-12 01:00:00 14.6 3 Norte 15 Nordeste 0 941.3 0.1 43
2020-03-12 00:00:00 14.6 2 Sudeste 14 Norte 0 941.4 0.8 41
2020-03-11 23:00:00 15.6 4 Norte 6 Nordeste 0 941.4 0.9 40
2020-03-11 22:00:00 17.2 4 Sur 8 Sur 0 941.2 0.8 34
2020-03-11 21:00:00 20.4 5 Nordeste 10 Nordeste 0 940.6 0.2 28
2020-03-11 20:00:00 21.9 5 Nordeste 10 Nordeste 0 940.5 0.1 25
2020-03-11 19:00:00 24.4 5 Nordeste 9 Nordeste 0 940.4 -0.3 21
2020-03-11 18:00:00 27.2 0 Calma 9 Nordeste 0 940.4 -0.6 16
2020-03-11 17:00:00 28.3 4 Sudoeste 12 Oeste 0 940.4 -1.5 13
2020-03-11 16:00:00 28 4 Oeste 11 Norte 0 940.7 -2 15
2020-03-11 15:00:00 27.9 4 Sur 11 Noroeste 0 941 -2.3 16
2020-03-11 14:00:00 26.7 5 Noroeste 10 Norte 0 941.9 -1.8 18
2020-03-11 13:00:00 25.7 5 Noroeste 10 Norte 0 942.7 -1.1 22
2020-03-11 12:00:00 23.8 3 Norte 13 Nordeste 0 943.3 -0.3 29
2020-03-11 11:00:00 20.3 4 Norte 9 Nordeste 0 943.7 0.2 37
2020-03-11 10:00:00 14.8 2 Oeste 5 Noroeste 0 943.8 0.5 48
2020-03-11 09:00:00 9.4 0 Calma 4 Sudoeste 0 943.6 0.5 62
2020-03-11 08:00:00 6.3 0 Calma 15 Norte 0 943.5 0.1 68
2020-03-11 07:00:00 5.9 4 Norte 10 Nordeste 0 943.3 -0.3 71
2020-03-11 06:00:00 6.1 2 Norte 5 Norte 0 943.1 -0.8 69
2020-03-11 05:00:00 6.7 3 Sur 10 Nordeste 0 943.4 -0.8 66
2020-03-11 04:00:00 7 2 Este 8 Nordeste 0 943.6 -0.8 65
2020-03-11 03:00:00 8.2 7 Norte 11 Norte 0 943.9 -0.8 63
2020-03-11 02:00:00 8.9 0 Calma 9 Norte 0 944.2 -0.4 60
2020-03-11 01:00:00 10 0 Calma 12 Nordeste 0 944.4 0.1 57
2020-03-11 00:00:00 11.9 2 Norte 10 Nordeste 0 944.7 0.5 52
2020-03-10 23:00:00 12.4 6 Norte 9 Norte 0 944.6 0.4 51
2020-03-10 22:00:00 14.6 3 Sur 7 Sudeste 0 944.3 0.2 46
2020-03-10 21:00:00 16.1 4 Sudeste 9 Sudeste 0 944.2 0.6 41
2020-03-10 20:00:00 17.7 3 Sudeste 5 Sur 0 944.2 0.5 36
2020-03-10 19:00:00 21 4 Sudoeste 12 Oeste 0 944.1 0.2 28
2020-03-10 18:00:00 22.4 4 Noroeste 15 Norte 0 943.6 -0.7 24
2020-03-10 17:00:00 22.8 6 Noroeste 17 Oeste 0 943.7 -1.2 24
2020-03-10 16:00:00 22.4 5 Norte 17 Norte 0 943.9 -1.6 24
2020-03-10 15:00:00 21.4 7 Norte 18 Oeste 0 944.3 -1.8 25
2020-03-10 14:00:00 20.3 8 Noroeste 19 Norte 0 944.9 -1.4 26
2020-03-10 13:00:00 18.8 3 Oeste 15 Nordeste 0 945.5 -0.8 27
2020-03-10 12:00:00 17.1 5 Nordeste 13 Nordeste 0 946.1 0.3 29
2020-03-10 11:00:00 15.2 3 Nordeste 8 Nordeste 0 946.3 0.8 33
2020-03-10 10:00:00 12.4 4 Norte 6 Norte 0 946.3 1.2 40
2020-03-10 09:00:00 8 2 Norte 4 Nordeste 0 945.8 1.2 55
2020-03-10 08:00:00 3.7 3 Sudeste 12 Nordeste 0 945.5 1.1 66
2020-03-10 07:00:00 4.5 4 Noroeste 8 Norte 0 945.1 0.8 62
2020-03-10 06:00:00 5.3 2 Nordeste 8 Este 0 944.6 0.2 60
2020-03-10 05:00:00 5.8 4 Sudeste 8 Sudeste 0 944.4 -0.2 57
2020-03-10 04:00:00 6.5 4 Sudeste 8 Sudeste 0 944.3 -0.4 55
2020-03-10 03:00:00 7.6 0 Calma 8 Este 0 944.4 -0.7 51
2020-03-10 02:00:00 8.5 3 Sudeste 13 Norte 0 944.6 -0.2 48
2020-03-10 01:00:00 10.5 7 Norte 20 Noroeste 0 944.7 0.8 41
2020-03-10 00:00:00 10.8 9 Norte 20 Norte 0 945.1 1.5 39
2020-03-09 23:00:00 10.9 6 Norte 18 Noroeste 0 944.8 2.1 38
2020-03-09 22:00:00 13.4 10 Noroeste 21 Noroeste 0 943.9 1.2 30
2020-03-09 21:00:00 13.3 4 Norte 10 Norte 0 943.6 1.4 42
2020-03-09 20:00:00 14.4 0 Calma 8 Noroeste 0 942.7 -0.1 42
2020-03-09 19:00:00 16.4 5 Noroeste 16 Noroeste 0 942.7 -0.1 34
2020-03-09 18:00:00 17.6 5 Oeste 19 Oeste 0 942.2 -0.9 30
2020-03-09 17:00:00 18.1 10 Noroeste 22 Oeste 0 942.8 -0.9 26
2020-03-09 16:00:00 18 9 Noroeste 18 Oeste 0 942.8 -1.7 28
2020-03-09 15:00:00 17.9 8 Noroeste 19 Sudoeste 0 943.1 -2 32
2020-03-09 14:00:00 16.3 5 Oeste 13 Oeste 0 943.7 -1 40
2020-03-09 13:00:00 15.3 5 Sudeste 11 Sudeste 0 944.5 0 46
2020-03-09 12:00:00 13.9 7 Noroeste 12 Noroeste 0 945.1 0.8 52
2020-03-09 11:00:00 12.6 4 Sudoeste 10 Sur 0 944.7 0.9 57
2020-03-09 10:00:00 10.4 3 Este 7 Sur 0 944.5 0.7 66
2020-03-09 09:00:00 6.4 0 Calma 8 Norte 0 944.3 0.7 76
2020-03-09 08:00:00 4 4 Nordeste 8 Este 0 943.8 0.5 79
2020-03-09 07:00:00 4 2 Norte 4 Norte 0 943.8 0.6 79
2020-03-09 06:00:00 5.1 2 Nordeste 6 Norte 0 943.6 0.1 73
2020-03-09 05:00:00 7 3 Sudoeste 6 Oeste 0 943.3 -0.3 71
2020-03-09 04:00:00 7.5 4 Sur 10 Sur 0 943.2 -0.5 67
2020-03-09 03:00:00 8.1 4 Sur 11 Sur 0 943.5 0.1 63
2020-03-09 02:00:00 9.5 5 Sur 14 Sur 0 943.6 -0.1 57
2020-03-09 01:00:00 9.6 4 Sur 9 Sudeste 0 943.7 0.2 55
2020-03-09 00:00:00 10.7 3 Sur 10 Sudoeste 0 943.4 0.2 50
2020-03-08 23:00:00 11.6 4 Oeste 11 Sur 0 943.7 0.7 48
2020-03-08 22:00:00 12.7 6 Sur 10 Sudoeste 0 943.5 0.8 38
2020-03-08 21:00:00 14.3 5 Sudoeste 14 Sudeste 0 943.2 0.6 29
2020-03-08 20:00:00 15 7 Sudoeste 14 Sudoeste 0 943 0.9 25
2020-03-08 19:00:00 16.1 6 Sudoeste 22 Oeste 0 942.7 0.6 24
2020-03-08 18:00:00 18 11 Oeste 24 Oeste 0 942.6 0.1 20
2020-03-08 17:00:00 18.9 9 Oeste 26 Sudoeste 0 942.1 -1 20
2020-03-08 16:00:00 19.7 9 Oeste 23 Sudoeste 0 942.1 -2.1 16
2020-03-08 15:00:00 18.8 13 Sudoeste 26 Sur 0 942.5 -2.1 22
2020-03-08 14:00:00 17.8 8 Oeste 21 Sudoeste 0 943.1 -1.9 28
2020-03-08 13:00:00 16.6 9 Sudoeste 18 Sur 0 944.2 -0.6 32
2020-03-08 12:00:00 14.7 6 Sudoeste 16 Sudoeste 0 944.6 0.4 38
2020-03-08 11:00:00 12.7 4 Sudoeste 13 Sur 0 945 1.1 48
2020-03-08 10:00:00 8.9 0 Calma 9 Norte 0 944.8 1.2 59
2020-03-08 09:00:00 3.5 5 Norte 9 Nordeste 0 944.2 0.5 71
2020-03-08 08:00:00 -0.3 3 Norte 7 Norte 0 943.9 0.9 80
2020-03-08 07:00:00 0 0 Calma 7 Norte 0 943.6 0.5 80
2020-03-08 06:00:00 0.4 6 Norte 8 Norte 0 943.7 -0.4 77
2020-03-08 05:00:00 1 5 Norte 8 Norte 0 943 -1.3 79
2020-03-08 04:00:00 2 5 Norte 8 Norte 0 943.1 -1.4 77
2020-03-08 03:00:00 2.5 3 Norte 6 Norte 0 944.1 -0.6 71
2020-03-08 02:00:00 3.9 4 Norte 7 Sudeste 0 944.3 -0.7 67
2020-03-08 01:00:00 4.7 3 Norte 5 Sudeste 0 944.5 -0.1 65
2020-03-08 00:00:00 5.5 3 Sur 7 Sudeste 0 944.7 0.7 60
2020-03-07 23:00:00 7.3 3 Sudeste 9 Sur 0 945 1.5 57
2020-03-07 22:00:00 7.4 4 Sudeste 7 Sur 0 944.6 1.8 55
2020-03-07 21:00:00 9.2 3 Este 10 Sur 0 944 1.7 50
2020-03-07 20:00:00 11.1 3 Sudeste 9 Norte 0 943.5 1.4 44
2020-03-07 19:00:00 13.5 6 Noroeste 20 Noroeste 0 942.8 0.4 36
2020-03-07 18:00:00 14.1 10 Noroeste 28 Noroeste 0 942.3 -0.6 33
2020-03-07 17:00:00 14.8 13 Noroeste 30 Noroeste 0 942.1 -1.7 31
2020-03-07 16:00:00 14.5 12 Norte 30 Noroeste 0 942.4 -2.1 31
2020-03-07 15:00:00 14.5 13 Noroeste 26 Norte 0 942.9 -2 31
2020-03-07 14:00:00 12.9 9 Noroeste 23 Noroeste 0 943.8 -1.5 37
2020-03-07 13:00:00 11.8 7 Noroeste 20 Noroeste 0 944.5 -0.6 39
2020-03-07 12:00:00 10.8 8 Noroeste 19 Noroeste 0 944.9 0.4 37
2020-03-07 11:00:00 9.8 7 Norte 13 Nordeste 0 945.3 1.5 37
2020-03-07 10:00:00 7.7 7 Norte 13 Norte 0 945.1 1.6 43
2020-03-07 09:00:00 5.4 0 Calma 9 Este 0 944.5 1.2 52
2020-03-07 08:00:00 2.2 5 Este 9 Este 0 943.8 0.9 63
2020-03-07 07:00:00 1.8 4 Sudeste 6 Sudeste 0 943.5 1 64
2020-03-07 06:00:00 1.9 3 Sur 7 Sur 0 943.3 0.3 64
2020-03-07 05:00:00 3 0 Calma 8 Sudeste 0 942.9 0.3 60
2020-03-07 04:00:00 3.7 0 Calma 9 Sur 0 942.5 0.2 58
2020-03-07 03:00:00 4.5 3 Norte 10 Norte 0 943 1.1 54
2020-03-07 02:00:00 5.5 4 Noroeste 21 Noroeste 0 942.6 0.8 51
2020-03-07 01:00:00 4.5 4 Este 9 Norte 0 942.3 1.3 54
2020-03-07 00:00:00 4.9 5 Norte 10 Sudeste 0 941.9 1.4 52
2020-03-06 23:00:00 6.4 3 Nordeste 8 Noroeste 0 941.8 2 47
2020-03-06 22:00:00 7.8 2 Noroeste 22 Noroeste 0 941 2.2 42
2020-03-06 21:00:00 8.6 6 Norte 21 Noroeste 0 940.5 2.4 40
2020-03-06 20:00:00 10.1 7 Noroeste 18 Noroeste 0 939.8 2.4 36
2020-03-06 19:00:00 11.3 8 Noroeste 27 Oeste 0 938.8 1.3 35
2020-03-06 18:00:00 12.7 13 Noroeste 31 Oeste 0 938.1 0.7 33
2020-03-06 17:00:00 13.4 13 Oeste 37 Oeste 0 937.4 -0.4 29
2020-03-06 16:00:00 13 14 Oeste 33 Oeste 0 937.5 -0.9 30
2020-03-06 15:00:00 12 14 Oeste 32 Oeste 0 937.4 -1 38
2020-03-06 14:00:00 12.5 19 Oeste 38 Sudoeste 0 937.8 -0.3 34
2020-03-06 13:00:00 11.9 14 Oeste 32 Oeste 0 938.4 0.4 42
2020-03-06 12:00:00 11.1 15 Oeste 33 Oeste 0 938.4 1 48
2020-03-06 11:00:00 9.3 16 Oeste 34 Sudoeste 0 938.1 1.5 58
2020-03-06 10:00:00 8 17 Sudoeste 35 Sudoeste 0 938 1.6 75
2020-03-06 09:00:00 6.3 14 Sudoeste 30 Sudoeste 0 937.4 1.2 84
2020-03-06 08:00:00 4.5 11 Sudoeste 26 Sudoeste 0 936.6 0.2 84
2020-03-06 07:00:00 4.5 14 Sudoeste 29 Sudoeste 0 936.4 0 86
2020-03-06 06:00:00 4.5 12 Sudoeste 23 Sudoeste 0 936.2 -0.5 84
2020-03-06 05:00:00 4.8 9 Sudoeste 22 Sudoeste 0 936.4 -0.5 81
2020-03-06 04:00:00 5.5 9 Sudoeste 19 Sudoeste 0 936.4 -0.2 77
2020-03-06 03:00:00 6.2 11 Sudoeste 24 Sudoeste 0 936.7 0 76
2020-03-06 02:00:00 6.9 6 Sudoeste 19 Sudoeste 0 936.9 0.3 73
2020-03-06 01:00:00 8.2 14 Sur 31 Sudoeste 0 936.6 0.4 69
2020-03-06 00:00:00 8.5 8 Sudoeste 23 Sudoeste 0 936.7 1.1 70
2020-03-05 23:00:00 9.5 8 Sudoeste 23 Sudoeste 0 936.6 1.3 66
2020-03-05 22:00:00 9.3 11 Sur 21 Sudoeste 0 936.2 1.3 62
2020-03-05 21:00:00 10 9 Sur 20 Sudoeste 0 935.6 1.1 60
2020-03-05 20:00:00 11.2 8 Sudoeste 27 Sudoeste 0 935.3 1.5 57
2020-03-05 19:00:00 12.4 13 Sudoeste 33 Oeste 0 934.9 1.7 50
2020-03-05 18:00:00 13.7 15 Sudoeste 36 Sudoeste 0 934.5 1.3 45
2020-03-05 17:00:00 13.9 21 Sudoeste 37 Sudoeste 0 933.8 -0.2 45
2020-03-05 16:00:00 15.1 22 Sudoeste 47 Sudoeste 0 933.2 -1.3 41
2020-03-05 15:00:00 14.6 23 Sudoeste 42 Sudoeste 0 933.2 -1.6 59
2020-03-05 14:00:00 13.5 21 Sudoeste 41 Sudoeste 0 934 -0.6 67
2020-03-05 13:00:00 13.3 19 Sudoeste 39 Sur 0 934.5 -1.1 64
2020-03-05 12:00:00 13.9 21 Sur 39 Sur 0 934.8 -0.6 59
2020-03-05 11:00:00 13.7 19 Sur 38 Sur 0 934.6 -0.3 62
2020-03-05 10:00:00 11.6 15 Sur 27 Sur 0 935.6 0.4 74
2020-03-05 09:00:00 10.4 12 Sur 22 Sur 0 935.4 -0.2 80
2020-03-05 08:00:00 9 10 Sur 18 Sur 0 934.9 -1.2 82
2020-03-05 07:00:00 8.9 5 Sur 12 Sur 0 935.2 -1.4 80
2020-03-05 06:00:00 8 3 Sur 12 Sudeste 0 935.6 -1.9 80
2020-03-05 05:00:00 8.5 5 Sudeste 10 Sudeste 0 936.1 -1.9 79
2020-03-05 04:00:00 9 6 Sur 11 Sudeste 0 936.6 -1.9 79
2020-03-05 03:00:00 9.1 5 Sur 10 Sur 0 937.5 -1.6 77
2020-03-05 02:00:00 10.9 7 Sur 11 Sur 0 938 -1.6 69
2020-03-05 01:00:00 11.2 3 Sudoeste 13 Sur 0 938.5 -1.3 65
2020-03-05 00:00:00 11.6 6 Sur 13 Sur 0 939.1 -0.7 62
2020-03-04 23:00:00 11.9 8 Sur 15 Sur 0 939.6 -0.4 62
2020-03-04 22:00:00 12.1 6 Sur 12 Sur 0 939.8 0 63
2020-03-04 21:00:00 12.4 5 Sur 12 Sudoeste 0 939.8 0.1 61
2020-03-04 20:00:00 12.8 6 Sudoeste 18 Sur 0 940 0.5 58
2020-03-04 19:00:00 13 8 Sudoeste 17 Sudoeste 0 939.8 -0.1 60
2020-03-04 18:00:00 13.4 10 Sudoeste 21 Oeste 0 939.7 -0.2 58
2020-03-04 17:00:00 13.8 9 Sudoeste 27 Sudoeste 0 939.5 -1.2 58
2020-03-04 16:00:00 14.3 13 Sudoeste 28 Sudoeste 0 939.9 -1.6 56
2020-03-04 15:00:00 14.4 14 Sudoeste 31 Sudoeste 0 939.9 -2.1 53
2020-03-04 14:00:00 14.1 11 Sudoeste 22 Sudoeste 0 940.7 -1.4 57
2020-03-04 13:00:00 13.4 10 Oeste 23 Sudoeste 0 941.5 -0.4 61
2020-03-04 12:00:00 13.2 13 Sudoeste 28 Sudoeste 0 942 0.6 60
2020-03-04 11:00:00 12.5 13 Sudoeste 28 Sudoeste 0 942.1 1.2 62
2020-03-04 10:00:00 11.9 9 Sudoeste 21 Sudoeste 0 941.9 0.9 74
2020-03-04 09:00:00 11.5 9 Sudoeste 21 Sudoeste 0 941.4 0.5 83
2020-03-04 08:00:00 11.2 5 Sur 16 Sur 0 940.9 0.2 85
2020-03-04 07:00:00 11.5 12 Sur 21 Sur 0 941 0.4 83
2020-03-04 06:00:00 11.5 5 Sudoeste 19 Sudoeste 0 940.9 -0.1 84
2020-03-04 05:00:00 11.8 8 Sudoeste 18 Sudoeste 0 940.7 -0.6 83
2020-03-04 04:00:00 11.9 7 Sudoeste 25 Sudoeste 0 940.6 -0.7 82
2020-03-04 03:00:00 12.3 12 Sudoeste 30 Sudoeste 0 941 -0.5 81
2020-03-04 02:00:00 12.5 10 Sudoeste 22 Sudoeste 0 941.3 0 80
2020-03-04 01:00:00 12.6 12 Sudoeste 23 Sudoeste 0 941.3 0.6 79
2020-03-04 00:00:00 12.5 9 Sudoeste 22 Sudoeste 0 941.5 0.8 78
2020-03-03 23:00:00 12.5 11 Sur 24 Sur 0 941.3 1.2 78
2020-03-03 22:00:00 12.3 11 Sudoeste 23 Sur 0 940.7 1 78
2020-03-03 21:00:00 12.3 12 Sudoeste 26 Sudoeste 0 940.7 2.1 76
2020-03-03 20:00:00 12.4 10 Sudoeste 29 Sudoeste 0 940.1 1.2 72
2020-03-03 19:00:00 12.7 13 Sudoeste 44 Sudoeste 0 939.7 1 71
2020-03-03 18:00:00 13.1 19 Sudoeste 42 Sudoeste 0 938.6 -0.2 68
2020-03-03 17:00:00 12.8 18 Sudoeste 39 Sudoeste 0 938.9 -0.1 68
2020-03-03 16:00:00 12.6 19 Sudoeste 49 Sudoeste 0 938.7 -0.5 65
2020-03-03 15:00:00 12.2 15 Sudoeste 39 Sudoeste 0 938.8 -0.8 65
2020-03-03 14:00:00 12 14 Sudoeste 35 Sudoeste 0 939 -0.7 63
2020-03-03 13:00:00 12.1 16 Sudoeste 42 Sudoeste 0 939.2 -1.1 57
2020-03-03 12:00:00 11.4 20 Sudoeste 37 Sudoeste 0 939.6 0.2 53
2020-03-03 11:00:00 8.8 14 Sur 36 Sur 0 939.7 0.9 68
2020-03-03 10:00:00 7.1 14 Sur 25 Sur 0 940.3 1.7 75
2020-03-03 09:00:00 6.4 9 Sur 24 Sudoeste 0 939.4 1.1 78
2020-03-03 08:00:00 5.8 5 Sur 17 Sur 0 938.8 0.3 76
2020-03-03 07:00:00 5.5 8 Sur 20 Sur 0 938.6 -0.1 77
2020-03-03 06:00:00 5.1 10 Sur 16 Sur 0 938.3 -1.1 79
2020-03-03 05:00:00 4.9 6 Sudoeste 14 Sudoeste 0 938.5 -1.2 78
2020-03-03 04:00:00 4 6 Sur 12 Sur 0 938.7 -0.8 76
2020-03-03 03:00:00 4.7 6 Sur 14 Sur 0 939.4 0.2 71
2020-03-03 02:00:00 4.6 4 Sudeste 16 Sur 0 939.7 0.7 70
2020-03-03 01:00:00 5.4 7 Sur 15 Sudoeste 0 939.5 1.1 67
2020-03-03 00:00:00 5.7 4 Sudeste 17 Sudoeste 0 939.2 1.7 71
2020-03-02 23:00:00 6.9 8 Sudoeste 16 Sudoeste 0 939 2.6 66
2020-03-02 22:00:00 7.7 6 Sudoeste 19 Oeste 0 938.4 3.2 58
2020-03-02 21:00:00 8.6 10 Sudoeste 24 Sudoeste 0 937.5 4.1 54
2020-03-02 20:00:00 9.8 12 Sudoeste 31 Oeste 0 936.4 3.9 53
2020-03-02 19:00:00 11 21 Sudoeste 49 Oeste 0 935.2 3.4 47
2020-03-02 18:00:00 12.3 26 Sudoeste 46 Sudoeste 0 933.4 2.9 44
2020-03-02 17:00:00 12.8 24 Sudoeste 46 Sudoeste 0 932.5 1.9 46
2020-03-02 16:00:00 12.8 26 Sudoeste 61 Sudoeste 0 931.8 1 44
2020-03-02 15:00:00 13.6 30 Sudoeste 59 Sudoeste 0 930.5 -0.1 45
2020-03-02 14:00:00 13.2 27 Sudoeste 59 Sudoeste 0 930.6 0.8 45
2020-03-02 13:00:00 14 27 Sudoeste 54 Sudoeste 0 930.8 1.4 44
2020-03-02 12:00:00 13.3 28 Sudoeste 54 Sudoeste 0 930.6 2.4 53
2020-03-02 11:00:00 13 23 Sudoeste 59 Sudoeste 0 929.8 2 70
2020-03-02 10:00:00 12.9 31 Sudoeste 64 Sudoeste 0 929.4 1.8 67
2020-03-02 09:00:00 12.3 28 Sur 58 Sur 0 928.2 0.9 74
2020-03-02 08:00:00 11.6 27 Sur 54 Sur 0 927.8 -1.4 73
2020-03-02 07:00:00 11.3 27 Sur 49 Sur 0 927.6 -1.5 75
2020-03-02 06:00:00 10.7 26 Sur 56 Sur 1 927.3 -2.9 83
2020-03-02 05:00:00 10.5 23 Sur 49 Sur 1.4 929.2 -1.5 86
2020-03-02 04:00:00 10.8 23 Sur 40 Sur 0.2 929.1 -2.2 81
2020-03-02 03:00:00 11.7 27 Sur 45 Sur 0 930.2 -2.1 72
2020-03-02 02:00:00 11.8 23 Sur 55 Sur 0 930.7 -2.1 74
2020-03-02 01:00:00 11.6 21 Sur 41 Sur 0 931.3 -2.2 86
2020-03-02 00:00:00 11.9 20 Sur 39 Sur 0 932.3 -1.6 82
2020-03-01 23:00:00 11.6 13 Sur 33 Sur 0 932.8 -1.6 79
2020-03-01 22:00:00 11.6 16 Sur 36 Sur 0 933.5 -1.2 78
2020-03-01 21:00:00 10.8 15 Sudeste 31 Sudeste 0 933.9 -0.7 76
2020-03-01 20:00:00 11.2 14 Sur 35 Sur 0 934.4 -0.3 72
2020-03-01 19:00:00 12 14 Sur 34 Sur 0 934.7 -0.7 67
2020-03-01 18:00:00 12.7 18 Sur 35 Sur 0 934.6 -1.4 65
2020-03-01 17:00:00 13.7 18 Sur 33 Sur 0 934.7 -1.5 60
2020-03-01 16:00:00 12.4 15 Sur 37 Sur 0 935.4 -1.8 65
2020-03-01 15:00:00 12.4 14 Sur 33 Sur 0 936 -1.5 65
2020-03-01 14:00:00 14 16 Sur 29 Sur 0 936.2 -1.4 54
2020-03-01 13:00:00 12.3 13 Sur 30 Sur 0 937.2 0.1 60
2020-03-01 12:00:00 11.2 12 Sudoeste 30 Sudoeste 0 937.5 1 66
2020-03-01 11:00:00 10.6 13 Sudoeste 33 Sur 0 937.6 1.6 68
2020-03-01 10:00:00 10.3 13 Sur 26 Sudoeste 0 937.1 1.3 69
2020-03-01 09:00:00 10 9 Sur 24 Sur 0 936.5 0.7 71
2020-03-01 08:00:00 9.6 13 Sur 25 Sur 0 936 0.8 73
2020-03-01 07:00:00 9.6 16 Sur 24 Sur 0 935.8 0.3 74
2020-03-01 06:00:00 9.7 11 Sudoeste 21 Sudoeste 0 935.8 0.4 76
2020-03-01 05:00:00 9.7 7 Sudoeste 21 Sudoeste 0 935.2 0 77
2020-03-01 04:00:00 9.7 10 Sudoeste 31 Sudoeste 0 935.5 0.3 76
2020-03-01 03:00:00 10.2 9 Sudoeste 29 Sudoeste 0 935.4 0.1 78
2020-03-01 02:00:00 11.1 12 Sudoeste 25 Sudoeste 0 935.2 -0.8 76
2020-03-01 01:00:00 11.1 14 Sur 33 Sudoeste 0 935.2 -0.5 78
2020-03-01 00:00:00 11.3 13 Sur 33 Sur 0 935.3 -0.4 77
2020-02-29 23:00:00 11.6 17 Sur 28 Sur 0 936 0.6 75
2020-02-29 22:00:00 11.4 16 Sur 39 Sur 0 935.7 0.7 77
2020-02-29 21:00:00 11.7 18 Sur 32 Sur 0 935.7 1.2 73
2020-02-29 20:00:00 11.8 15 Sur 36 Sur 0 935.4 1.1 70
2020-02-29 19:00:00 12.8 18 Sur 32 Sur 0 935 0.5 64
2020-02-29 18:00:00 14.2 17 Sur 32 Sur 0 934.5 -0.1 58
2020-02-29 17:00:00 15 17 Sur 37 Sur 0 934.3 -0.9 53
2020-02-29 16:00:00 15.6 19 Sur 33 Sur 0 934.5 -1.3 48
2020-02-29 15:00:00 16.4 20 Sur 42 Sur 0 934.6 -1.8 42
2020-02-29 14:00:00 16.2 18 Sudoeste 37 Sur 0 935.2 -1.5 40
2020-02-29 13:00:00 15.9 16 Sur 33 Sur 0 935.8 -1 42
2020-02-29 12:00:00 14.4 16 Sur 28 Sudoeste 0 936.4 0.1 45
2020-02-29 11:00:00 12.8 16 Sur 30 Sudoeste 0 936.7 0.9 48
2020-02-29 10:00:00 10.6 11 Sur 26 Sudeste 0 936.8 1.2 61
2020-02-29 09:00:00 8.2 9 Sudeste 19 Sudeste 0 936.3 0.9 69
2020-02-29 08:00:00 6.6 6 Sur 13 Sudeste 0 935.8 0.3 67
2020-02-29 07:00:00 7.7 6 Sudeste 15 Sur 0 935.6 0.4 61
2020-02-29 06:00:00 8.9 9 Sur 17 Sudeste 0 935.4 -0.1 55
2020-02-29 05:00:00 10 5 Sur 18 Sudeste 0 935.5 -0.5 52
2020-02-29 04:00:00 10.1 9 Sur 17 Sur 0 935.2 -1.2 56
2020-02-29 03:00:00 10.6 7 Sudeste 18 Sur 0 935.5 -1 55
2020-02-29 02:00:00 10.8 8 Sudeste 14 Sudeste 0 936 -0.8 51
2020-02-29 01:00:00 10.9 8 Sudeste 15 Sudeste 0 936.4 -0.2 45
2020-02-29 00:00:00 12.9 13 Sudeste 21 Sudeste 0 936.5 -0.1 37